createdAt,value
2022-08-17T00:00:49.701Z,1.75
2022-08-17T00:03:24.271Z,2.65
2022-08-17T00:05:55.437Z,2.15
2022-08-17T00:08:27.884Z,1.65
2022-08-17T00:10:57.635Z,2.28
2022-08-17T00:13:29.578Z,1.90
2022-08-17T00:16:02.316Z,1.98
2022-08-17T00:19:06.183Z,1.20
2022-08-17T00:21:25.132Z,1.67
2022-08-17T00:23:56.399Z,1.40
2022-08-17T00:26:44.352Z,1.98
2022-08-17T00:29:14.900Z,1.70
2022-08-17T00:31:49.536Z,1.80
2022-08-17T00:34:19.083Z,1.98
2022-08-17T00:36:48.058Z,1.20
2022-08-17T00:39:18.266Z,1.98
2022-08-17T00:41:47.784Z,1.60
2022-08-17T00:44:16.812Z,2.08
2022-08-17T00:46:47.922Z,2.70
2022-08-17T00:49:19.655Z,1.88
2022-08-17T00:51:53.446Z,2.28
2022-08-17T00:54:28.249Z,1.73
2022-08-17T00:57:03.991Z,1.67
2022-08-17T00:59:38.518Z,1.95
2022-08-17T01:02:09.955Z,1.50
2022-08-17T01:04:39.867Z,1.63
2022-08-17T01:07:11.314Z,1.50
2022-08-17T01:09:42.708Z,1.50
2022-08-17T01:12:13.365Z,2.35
2022-08-17T01:14:42.702Z,2.08
2022-08-17T01:17:11.892Z,1.90
2022-08-17T01:19:43.554Z,2.03
2022-08-17T01:22:25.380Z,2.67
2022-08-17T01:24:59.159Z,1.23
2022-08-17T01:27:29.837Z,2.92
2022-08-17T01:30:02.734Z,1.45
2022-08-17T01:32:32.181Z,1.65
2022-08-17T01:35:01.940Z,1.52
2022-08-17T01:37:35.654Z,1.77
2022-08-17T01:40:10.469Z,1.63
2022-08-17T01:42:45.906Z,1.67
2022-08-17T01:45:18.217Z,1.38
2022-08-17T01:47:47.293Z,1.65
2022-08-17T01:50:20.860Z,1.83
2022-08-17T01:52:55.299Z,2.05
2022-08-17T01:55:30.687Z,2.67
2022-08-17T02:00:59.448Z,1.75
2022-08-17T02:03:20.378Z,1.67
2022-08-17T02:05:50.104Z,2.10
2022-08-17T02:08:21.387Z,1.85
2022-08-17T02:11:12.093Z,1.85
2022-08-17T02:13:41.805Z,2.42
2022-08-17T02:16:10.902Z,1.55
2022-08-17T02:18:40.114Z,1.67
2022-08-17T02:21:09.503Z,1.95
2022-08-17T02:23:43.016Z,1.98
2022-08-17T02:26:25.806Z,1.90
2022-08-17T02:28:55.820Z,1.75
2022-08-17T02:31:24.803Z,1.83
2022-08-17T02:34:00.282Z,1.85
2022-08-17T02:36:34.948Z,2.35
2022-08-17T02:39:08.745Z,1.75
2022-08-17T02:41:38.028Z,2.45
2022-08-17T02:44:07.774Z,1.23
2022-08-17T02:46:37.063Z,2.03
2022-08-17T02:49:06.188Z,2.45
2022-08-17T02:51:35.572Z,1.90
2022-08-17T02:54:40.592Z,1.38
2022-08-17T02:56:54.774Z,1.75
2022-08-17T02:59:24.385Z,1.92
2022-08-17T03:01:53.764Z,2.92
2022-08-17T03:04:22.823Z,1.50
2022-08-17T03:06:51.727Z,2.47
2022-08-17T03:09:21.961Z,2.50
2022-08-17T03:11:53.163Z,1.42
2022-08-17T03:14:26.163Z,1.75
2022-08-17T03:16:55.510Z,1.33
2022-08-17T03:19:24.576Z,2.15
2022-08-17T03:21:55.164Z,3.08
2022-08-17T03:24:28.835Z,2.03
2022-08-17T03:26:57.982Z,2.97
2022-08-17T03:29:26.889Z,2.40
2022-08-17T03:31:55.760Z,2.00
2022-08-17T03:34:24.627Z,1.65
2022-08-17T03:36:53.546Z,2.40
2022-08-17T03:39:22.418Z,1.48
2022-08-17T03:41:52.789Z,1.42
2022-08-17T03:44:21.686Z,2.42
2022-08-17T03:47:07.813Z,2.72
2022-08-17T03:49:54.043Z,1.83
2022-08-17T03:52:40.152Z,3.22
2022-08-17T03:55:35.945Z,2.50
2022-08-17T03:58:06.733Z,1.60
2022-08-17T04:00:39.741Z,1.65
2022-08-17T04:03:09.078Z,1.88
2022-08-17T04:05:38.352Z,3.20
2022-08-17T04:08:10.317Z,1.85
2022-08-17T04:10:44.817Z,2.42
2022-08-17T04:13:15.844Z,2.40
2022-08-17T04:15:54.355Z,2.47
2022-08-17T04:18:23.286Z,2.30
2022-08-17T04:20:52.313Z,2.30
2022-08-17T04:23:21.194Z,2.72
2022-08-17T04:25:53.873Z,2.00
2022-08-17T04:28:24.210Z,1.92
2022-08-17T04:30:53.198Z,3.40
2022-08-17T04:33:24.132Z,3.00
2022-08-17T04:35:55.793Z,2.33
2022-08-17T04:38:26.629Z,3.08
2022-08-17T04:41:13.609Z,2.75
2022-08-17T04:43:45.204Z,3.60
2022-08-17T04:46:17.052Z,3.05
2022-08-17T04:48:48.167Z,2.38
2022-08-17T04:51:20.235Z,2.58
2022-08-17T04:53:54.193Z,2.60
2022-08-17T04:56:25.195Z,3.15
2022-08-17T04:58:59.987Z,2.65
2022-08-17T05:01:31.286Z,2.97
2022-08-17T05:04:32.125Z,2.58
2022-08-17T05:06:52.651Z,2.88
2022-08-17T05:09:21.539Z,2.00
2022-08-17T05:11:50.428Z,2.03
2022-08-17T05:14:20.679Z,3.47
2022-08-17T05:16:51.166Z,2.45
2022-08-17T05:19:20.012Z,2.47
2022-08-17T05:21:50.304Z,2.80
2022-08-17T05:24:38.460Z,2.17
2022-08-17T05:27:08.970Z,1.85
2022-08-17T05:29:39.425Z,1.90
2022-08-17T05:32:38.614Z,2.22
2022-08-17T05:35:01.036Z,2.22
2022-08-17T05:37:29.936Z,2.67
2022-08-17T05:39:58.876Z,2.10
2022-08-17T05:42:27.735Z,2.13
2022-08-17T05:44:59.847Z,1.58
2022-08-17T05:47:29.381Z,1.52
2022-08-17T05:49:59.139Z,1.85
2022-08-17T05:52:39.271Z,1.52
2022-08-17T05:55:18.942Z,1.92
2022-08-17T05:58:01.153Z,2.67
2022-08-17T06:00:44.173Z,1.90
2022-08-17T06:03:34.315Z,2.10
2022-08-17T06:06:15.987Z,2.00
2022-08-17T06:08:51.670Z,2.03
2022-08-17T06:11:32.681Z,1.73
2022-08-17T06:14:18.380Z,2.05
2022-08-17T06:16:52.714Z,1.48
2022-08-17T06:19:31.733Z,1.57
2022-08-17T06:22:02.767Z,2.25
2022-08-17T06:24:40.368Z,1.58
2022-08-17T06:27:15.072Z,1.90
2022-08-17T06:29:51.939Z,1.20
2022-08-17T06:32:23.009Z,1.27
2022-08-17T06:34:53.801Z,1.80
2022-08-17T06:37:48.987Z,1.42
2022-08-17T06:40:51.329Z,1.73
2022-08-17T06:43:35.035Z,2.25
2022-08-17T06:46:10.999Z,1.65
2022-08-17T06:48:48.463Z,2.40
2022-08-17T06:51:25.170Z,1.40
2022-08-17T06:54:00.828Z,1.15
2022-08-17T06:56:52.970Z,0.98
2022-08-17T06:59:36.261Z,1.58
2022-08-17T07:02:29.428Z,1.42
2022-08-17T07:05:23.713Z,1.10
2022-08-17T07:08:03.412Z,1.15
2022-08-17T07:10:48.227Z,0.93
2022-08-17T07:13:35.218Z,0.80
2022-08-17T07:16:19.562Z,1.17
2022-08-17T07:18:51.057Z,1.55
2022-08-17T07:21:40.792Z,0.70
2022-08-17T07:24:37.381Z,0.98
2022-08-17T07:27:14.691Z,0.90
2022-08-17T07:29:48.911Z,1.33
2022-08-17T07:32:21.305Z,0.68
2022-08-17T07:35:15.273Z,1.25
2022-08-17T07:37:51.062Z,0.70
2022-08-17T07:40:30.849Z,1.58
2022-08-17T07:43:23.611Z,1.20
2022-08-17T07:46:21.423Z,1.13
2022-08-17T07:48:53.758Z,0.95
2022-08-17T07:51:26.978Z,1.75
2022-08-17T07:54:13.979Z,1.15
2022-08-17T07:56:47.239Z,1.67
2022-08-17T07:59:23.007Z,0.57
2022-08-17T08:02:10.252Z,1.88
2022-08-17T08:04:59.720Z,0.95
2022-08-17T08:07:32.143Z,1.10
2022-08-17T08:10:08.130Z,0.73
2022-08-17T08:12:38.537Z,1.10
2022-08-17T08:15:18.835Z,0.82
2022-08-17T08:17:52.259Z,0.60
2022-08-17T08:20:51.555Z,0.98
2022-08-17T08:23:25.700Z,0.93
2022-08-17T08:26:18.625Z,0.65
2022-08-17T08:28:55.032Z,0.98
2022-08-17T08:31:31.572Z,0.50
2022-08-17T08:34:53.348Z,0.88
2022-08-17T08:37:16.366Z,1.02
2022-08-17T08:39:57.618Z,0.40
2022-08-17T08:42:38.388Z,0.55
2022-08-17T08:45:14.417Z,1.05
2022-08-17T08:48:05.535Z,1.10
2022-08-17T08:50:47.565Z,0.70
2022-08-17T08:53:31.971Z,1.48
2022-08-17T08:56:06.232Z,1.00
2022-08-17T08:58:48.377Z,0.30
2022-08-17T09:01:27.784Z,0.55
2022-08-17T09:04:23.381Z,0.45
2022-08-17T09:07:09.813Z,0.55
2022-08-17T09:09:50.702Z,0.45
2022-08-17T09:12:27.089Z,0.30
2022-08-17T09:15:02.358Z,0.20
2022-08-17T09:20:14.460Z,0.10
2022-08-17T09:23:04.078Z,0.70
2022-08-17T09:25:36.157Z,0.20
2022-08-17T09:28:08.257Z,0.50
2022-08-17T09:30:46.200Z,0.22
2022-08-17T09:33:22.872Z,0.50
2022-08-17T09:35:56.774Z,0.95
2022-08-17T09:38:32.646Z,0.93
2022-08-17T09:41:10.687Z,0.82
2022-08-17T09:43:44.882Z,0.28
2022-08-17T09:46:18.853Z,0.40
2022-08-17T09:48:55.394Z,0.75
2022-08-17T09:51:33.198Z,0.50
2022-08-17T09:54:34.781Z,0.25
2022-08-17T09:57:28.008Z,0.77
2022-08-17T10:00:16.458Z,0.80
2022-08-17T10:03:20.338Z,0.85
2022-08-17T10:05:57.190Z,0.20
2022-08-17T10:08:36.641Z,0.55
2022-08-17T10:11:22.545Z,0.32
2022-08-17T10:14:24.127Z,0.47
2022-08-17T10:17:05.701Z,0.75
2022-08-17T10:19:39.859Z,1.23
2022-08-17T10:22:38.785Z,0.95
2022-08-17T10:25:48.595Z,1.10
2022-08-17T10:28:28.842Z,0.70
2022-08-17T10:31:33.789Z,0.73
2022-08-17T10:34:09.448Z,0.43
2022-08-17T10:36:48.468Z,0.88
2022-08-17T10:39:30.686Z,0.30
2022-08-17T10:42:05.835Z,0.50
2022-08-17T10:44:47.569Z,0.68
2022-08-17T10:47:18.871Z,0.30
2022-08-17T10:49:53.989Z,1.45
2022-08-17T10:52:50.162Z,0.57
2022-08-17T10:55:20.712Z,0.30
2022-08-17T10:57:51.275Z,0.30
2022-08-17T11:00:59.909Z,1.25
2022-08-17T11:03:29.681Z,0.52
2022-08-17T11:06:12.627Z,0.60
2022-08-17T11:09:23.289Z,0.60
2022-08-17T11:12:16.133Z,0.55
2022-08-17T11:14:58.035Z,0.55
2022-08-17T11:17:49.833Z,0.60
2022-08-17T11:20:38.770Z,0.30
2022-08-17T11:23:46.028Z,1.02
2022-08-17T11:26:27.020Z,0.88
2022-08-17T11:29:02.252Z,0.85
2022-08-17T11:31:38.431Z,0.20
2022-08-17T11:34:19.076Z,0.52
2022-08-17T11:37:30.419Z,0.35
2022-08-17T11:40:29.043Z,0.17
2022-08-17T11:43:15.427Z,0.50
2022-08-17T11:46:02.640Z,0.10
2022-08-17T11:48:56.250Z,0.65
2022-08-17T11:51:46.503Z,0.10
2022-08-17T11:54:41.880Z,0.30
2022-08-17T11:57:48.295Z,0.40
2022-08-17T12:00:49.273Z,0.25
2022-08-17T12:03:54.042Z,0.38
2022-08-17T12:06:33.220Z,0.52
2022-08-17T12:09:08.910Z,1.20
2022-08-17T12:11:56.305Z,0.57
2022-08-17T12:15:08.168Z,0.60
2022-08-17T12:17:40.836Z,0.30
2022-08-17T12:22:54.976Z,2.58
2022-08-17T12:25:33.237Z,7.28
2022-08-17T12:28:06.786Z,3.50
2022-08-17T12:30:37.578Z,0.60
2022-08-17T12:33:25.314Z,0.32
2022-08-17T12:36:02.977Z,1.48
2022-08-17T12:38:34.589Z,0.65
2022-08-17T12:41:20.916Z,0.80
2022-08-17T12:44:02.419Z,0.75
2022-08-17T12:46:47.740Z,0.43
2022-08-17T12:49:24.058Z,0.68
2022-08-17T12:52:12.163Z,0.30
2022-08-17T12:54:47.924Z,0.17
2022-08-17T12:57:20.031Z,0.20
2022-08-17T12:59:53.227Z,0.52
2022-08-17T13:02:30.014Z,0.30
2022-08-17T13:05:01.837Z,0.30
2022-08-17T13:07:36.464Z,0.95
2022-08-17T13:10:06.009Z,1.00
2022-08-17T13:12:37.005Z,0.85
2022-08-17T13:15:07.793Z,0.25
2022-08-17T13:17:37.627Z,0.45
2022-08-17T13:20:16.225Z,1.15
2022-08-17T13:22:54.465Z,0.75
2022-08-17T13:25:23.482Z,0.75
2022-08-17T13:27:54.827Z,0.57
2022-08-17T13:30:28.209Z,0.47
2022-08-17T13:32:58.671Z,0.40
2022-08-17T13:35:44.250Z,0.20
2022-08-17T13:41:34.707Z,0.85
2022-08-17T13:44:04.666Z,0.32
2022-08-17T13:46:35.326Z,0.50
2022-08-17T13:49:07.046Z,0.98
2022-08-17T13:51:42.980Z,0.60
2022-08-17T13:54:27.143Z,0.85
2022-08-17T13:57:01.501Z,0.20
2022-08-17T13:59:52.633Z,0.45
2022-08-17T14:02:28.254Z,0.15
2022-08-17T14:05:00.556Z,0.10
2022-08-17T14:07:33.935Z,0.35
2022-08-17T14:10:09.072Z,0.20
2022-08-17T14:15:10.876Z,0.20
2022-08-17T14:17:39.799Z,0.43
2022-08-17T14:20:12.233Z,0.22
2022-08-17T14:22:44.914Z,0.73
2022-08-17T14:25:16.576Z,0.63
2022-08-17T14:27:53.663Z,0.15
2022-08-17T14:30:25.674Z,0.10
2022-08-17T14:32:58.200Z,0.70
2022-08-17T14:35:29.442Z,0.55
2022-08-17T14:37:58.901Z,0.80
2022-08-17T14:40:28.137Z,0.50
2022-08-17T14:42:58.896Z,0.57
2022-08-17T14:45:32.634Z,0.40
2022-08-17T14:48:07.726Z,0.90
2022-08-17T14:50:40.651Z,0.68
2022-08-17T14:53:12.731Z,0.55
2022-08-17T14:55:41.730Z,0.38
2022-08-17T14:58:12.028Z,0.55
2022-08-17T15:00:43.643Z,0.10
2022-08-17T15:03:12.648Z,0.32
2022-08-17T15:05:41.703Z,1.00
2022-08-17T15:08:11.001Z,0.50
2022-08-17T15:10:40.212Z,0.30
2022-08-17T15:13:18.411Z,0.63
2022-08-17T15:15:52.645Z,0.40
2022-08-17T15:18:22.767Z,1.23
2022-08-17T15:20:52.778Z,0.57
2022-08-17T15:23:23.610Z,0.60
2022-08-17T15:25:54.585Z,0.10
2022-08-17T15:28:25.134Z,0.13
2022-08-17T15:30:55.002Z,0.30
2022-08-17T15:33:29.492Z,0.63
2022-08-17T15:36:01.491Z,0.20
2022-08-17T15:38:39.216Z,0.30
2022-08-17T15:41:09.583Z,1.05
2022-08-17T15:43:40.196Z,0.35
2022-08-17T15:46:12.469Z,1.73
2022-08-17T15:48:43.688Z,0.85
2022-08-17T15:51:15.149Z,0.43
2022-08-17T15:53:46.477Z,0.85
2022-08-17T15:56:16.439Z,0.52
2022-08-17T15:58:47.826Z,1.30
2022-08-17T16:02:20.001Z,0.63
2022-08-17T16:04:29.792Z,0.68
2022-08-17T16:06:59.119Z,0.63
2022-08-17T16:09:28.385Z,0.57
2022-08-17T16:11:57.527Z,0.38
2022-08-17T16:14:33.558Z,0.60
2022-08-17T16:17:04.653Z,1.08
2022-08-17T16:19:34.402Z,0.60
2022-08-17T16:22:03.903Z,0.40
2022-08-17T16:24:33.273Z,0.63
2022-08-17T16:27:02.261Z,0.32
2022-08-17T16:29:32.591Z,0.08
2022-08-17T16:32:10.006Z,0.73
2022-08-17T16:34:39.073Z,0.10
2022-08-17T16:37:08.471Z,1.35
2022-08-17T16:39:38.581Z,0.40
2022-08-17T16:42:23.304Z,0.20
2022-08-17T16:44:54.961Z,0.50
2022-08-17T16:47:23.907Z,0.22
2022-08-17T16:49:53.396Z,0.60
2022-08-17T16:52:32.552Z,0.52
2022-08-17T16:55:02.998Z,0.32
2022-08-17T16:57:32.195Z,0.32
2022-08-17T17:00:02.715Z,0.73
2022-08-17T17:02:36.680Z,0.35
2022-08-17T17:05:10.391Z,0.68
2022-08-17T17:07:48.676Z,0.30
2022-08-17T17:10:22.071Z,0.68
2022-08-17T17:13:02.715Z,1.00
2022-08-17T17:15:54.407Z,0.60
2022-08-17T17:18:33.199Z,0.35
2022-08-17T17:21:02.512Z,0.73
2022-08-17T17:23:51.140Z,1.90
2022-08-17T17:26:30.660Z,0.43
2022-08-17T17:29:13.138Z,1.00
2022-08-17T17:31:56.076Z,0.98
2022-08-17T17:34:27.628Z,0.88
2022-08-17T17:36:59.962Z,0.38
2022-08-17T17:39:42.856Z,0.82
2022-08-17T17:42:20.304Z,0.73
2022-08-17T17:45:00.659Z,1.48
2022-08-17T17:47:32.398Z,1.50
2022-08-17T17:50:03.687Z,1.17
2022-08-17T17:52:41.078Z,0.55
2022-08-17T17:55:25.584Z,1.30
2022-08-17T17:58:04.614Z,0.90
2022-08-17T18:00:45.888Z,1.98
2022-08-17T18:03:28.906Z,1.77
2022-08-17T18:06:15.033Z,0.73
2022-08-17T18:08:54.870Z,0.90
2022-08-17T18:11:42.398Z,1.02
2022-08-17T18:14:38.725Z,0.98
2022-08-17T18:17:07.948Z,0.55
2022-08-17T18:19:41.483Z,0.52
2022-08-17T18:22:14.242Z,0.85
2022-08-17T18:24:45.469Z,1.13
2022-08-17T18:27:23.320Z,0.52
2022-08-17T18:29:54.037Z,0.73
2022-08-17T18:32:36.087Z,0.80
2022-08-17T18:35:32.696Z,1.15
2022-08-17T18:38:20.951Z,1.30
2022-08-17T18:41:01.366Z,1.00
2022-08-17T18:43:44.104Z,1.02
2022-08-17T18:46:29.686Z,0.60
2022-08-17T18:49:02.218Z,0.95
2022-08-17T18:51:40.557Z,0.43
2022-08-17T18:54:18.835Z,0.80
2022-08-17T18:56:54.205Z,0.73
2022-08-17T18:59:28.837Z,0.98
2022-08-17T19:02:27.344Z,0.75
2022-08-17T19:05:08.996Z,0.80
2022-08-17T19:07:41.869Z,2.22
2022-08-17T19:10:20.555Z,0.80
2022-08-17T19:12:55.529Z,0.73
2022-08-17T19:15:35.829Z,0.90
2022-08-17T19:18:15.122Z,1.25
2022-08-17T19:20:52.194Z,1.05
2022-08-17T19:23:28.892Z,0.95
2022-08-17T19:26:01.889Z,0.95
2022-08-17T19:28:37.917Z,1.63
2022-08-17T19:31:11.199Z,1.25
2022-08-17T19:33:40.048Z,1.42
2022-08-17T19:36:16.371Z,1.50
2022-08-17T19:38:59.815Z,1.00
2022-08-17T19:41:35.323Z,1.00
2022-08-17T19:44:31.319Z,1.25
2022-08-17T19:47:10.499Z,2.20
2022-08-17T19:49:53.468Z,1.13
2022-08-17T19:52:41.787Z,1.08
2022-08-17T19:55:20.954Z,0.70
2022-08-17T19:58:00.796Z,1.25
2022-08-17T20:00:31.626Z,2.00
2022-08-17T20:03:06.511Z,1.40
2022-08-17T20:06:08.689Z,1.20
2022-08-17T20:08:31.728Z,1.42
2022-08-17T20:11:08.816Z,1.65
2022-08-17T20:13:41.772Z,1.08
2022-08-17T20:16:12.139Z,1.65
2022-08-17T20:18:59.357Z,1.75
2022-08-17T20:21:35.711Z,1.00
2022-08-17T20:24:14.311Z,1.42
2022-08-17T20:26:57.884Z,1.52
2022-08-17T20:29:39.880Z,1.55
2022-08-17T20:32:19.365Z,1.38
2022-08-17T20:34:49.156Z,1.60
2022-08-17T20:37:31.283Z,1.55
2022-08-17T20:40:20.727Z,1.35
2022-08-17T20:42:51.275Z,1.58
2022-08-17T20:46:10.667Z,1.58
2022-08-17T20:48:43.914Z,2.38
2022-08-17T20:51:19.320Z,1.55
2022-08-17T20:56:52.053Z,1.60
2022-08-17T20:59:56.414Z,1.40
2022-08-17T21:02:28.473Z,1.92
2022-08-17T21:05:35.462Z,1.30
2022-08-17T21:08:16.654Z,1.50
2022-08-17T21:10:48.163Z,1.52
2022-08-17T21:13:44.654Z,1.48
2022-08-17T21:16:41.380Z,1.58
2022-08-17T21:19:30.924Z,1.35
2022-08-17T21:22:13.784Z,1.55
2022-08-17T21:24:51.968Z,2.40
2022-08-17T21:27:31.063Z,1.42
2022-08-17T21:30:32.615Z,2.05
2022-08-17T21:33:29.588Z,1.92
2022-08-17T21:36:27.212Z,1.42
2022-08-17T21:39:06.435Z,2.08
2022-08-17T21:41:46.449Z,1.83
2022-08-17T21:44:30.495Z,1.48
2022-08-17T21:47:16.649Z,1.20
2022-08-17T21:49:47.019Z,2.20
2022-08-17T21:52:17.806Z,1.88
2022-08-17T21:54:52.308Z,2.10
2022-08-17T21:57:24.537Z,2.37
2022-08-17T21:59:56.636Z,1.35
2022-08-17T22:02:28.425Z,1.85
2022-08-17T22:05:01.869Z,1.88
2022-08-17T22:07:40.285Z,1.90
2022-08-17T22:10:27.188Z,1.88
2022-08-17T22:13:16.810Z,1.73
2022-08-17T22:15:48.564Z,1.95
2022-08-17T22:18:22.817Z,2.03
2022-08-17T22:20:56.341Z,1.63
2022-08-17T22:23:46.962Z,1.42
2022-08-17T22:26:18.573Z,1.55
2022-08-17T22:28:52.866Z,2.33
2022-08-17T22:31:25.042Z,1.92
2022-08-17T22:34:11.462Z,2.00
2022-08-17T22:36:43.238Z,1.77
2022-08-17T22:39:42.482Z,2.53
2022-08-17T22:42:15.740Z,1.92
2022-08-17T22:44:50.363Z,1.08
2022-08-17T22:47:31.824Z,1.77
2022-08-17T22:50:03.867Z,1.88
2022-08-17T22:52:56.814Z,1.80
2022-08-17T22:55:44.078Z,2.17
2022-08-17T22:58:32.242Z,1.80
2022-08-17T23:01:24.197Z,2.58
2022-08-17T23:03:55.569Z,1.90
2022-08-17T23:06:25.349Z,1.70
2022-08-17T23:08:57.762Z,1.80
2022-08-17T23:11:42.921Z,1.83
2022-08-17T23:14:20.695Z,2.30
2022-08-17T23:16:51.016Z,1.60
2022-08-17T23:19:22.305Z,1.73
2022-08-17T23:21:55.465Z,1.77
2022-08-17T23:24:27.685Z,2.05
2022-08-17T23:26:58.212Z,2.25
2022-08-17T23:29:29.442Z,2.13
2022-08-17T23:32:01.401Z,1.60
2022-08-17T23:34:30.352Z,1.90
2022-08-17T23:37:02.370Z,2.50
2022-08-17T23:39:32.862Z,1.30
2022-08-17T23:42:05.413Z,2.20
2022-08-17T23:44:34.507Z,2.63
2022-08-17T23:47:05.070Z,2.10
2022-08-17T23:49:33.960Z,2.20
2022-08-17T23:52:04.440Z,2.45
2022-08-17T23:54:43.838Z,2.58
2022-08-17T23:57:14.454Z,1.90
2022-08-17T23:59:44.511Z,2.75
